createdAt,value
2024-01-24T00:00:57.182Z,-0.27
2024-01-24T00:03:24.126Z,-0.27
2024-01-24T00:05:51.220Z,-0.28
2024-01-24T00:08:17.659Z,-0.27
2024-01-24T00:10:43.923Z,-0.25
2024-01-24T00:13:10.304Z,-0.22
2024-01-24T00:15:38.578Z,-0.20
2024-01-24T00:18:05.186Z,-0.21
2024-01-24T00:20:31.534Z,-0.23
2024-01-24T00:22:58.057Z,-0.26
2024-01-24T00:25:24.658Z,-0.26
2024-01-24T00:27:51.004Z,-0.25
2024-01-24T00:30:17.394Z,-0.25
2024-01-24T00:32:43.905Z,-0.24
2024-01-24T00:35:10.333Z,-0.24
2024-01-24T00:37:36.773Z,-0.26
2024-01-24T00:40:03.891Z,-0.27
2024-01-24T00:42:30.474Z,-0.27
2024-01-24T00:44:56.843Z,-0.27
2024-01-24T00:47:23.313Z,-0.28
2024-01-24T00:49:49.659Z,-0.30
2024-01-24T00:52:15.935Z,-0.29
2024-01-24T00:54:42.423Z,-0.28
2024-01-24T00:57:08.829Z,-0.27
2024-01-24T00:59:35.285Z,-0.26
2024-01-24T01:02:01.545Z,-0.24
2024-01-24T01:04:28.118Z,-0.21
2024-01-24T01:06:54.477Z,-0.19
2024-01-24T01:09:20.854Z,-0.17
2024-01-24T01:11:47.181Z,-0.17
2024-01-24T01:14:13.893Z,-0.17
2024-01-24T01:16:41.443Z,-0.18
2024-01-24T01:19:08.154Z,-0.17
2024-01-24T01:21:35.306Z,-0.17
2024-01-24T01:24:01.956Z,-0.17
2024-01-24T01:26:28.509Z,-0.15
2024-01-24T01:28:55.114Z,-0.13
2024-01-24T01:31:21.367Z,-0.13
2024-01-24T01:33:47.904Z,-0.14
2024-01-24T01:36:22.608Z,-0.14
2024-01-24T01:38:50.391Z,-0.14
2024-01-24T01:41:17.532Z,-0.16
2024-01-24T01:43:44.599Z,-0.18
2024-01-24T01:46:14.704Z,-0.19
2024-01-24T01:48:41.235Z,-0.18
2024-01-24T01:51:07.589Z,-0.18
2024-01-24T01:53:38.828Z,-0.19
2024-01-24T01:56:09.699Z,-0.19
2024-01-24T01:58:37.224Z,-0.19
2024-01-24T02:01:05.211Z,-0.20
2024-01-24T02:03:34.373Z,-0.22
2024-01-24T02:06:01.099Z,-0.20
2024-01-24T02:08:27.734Z,-0.19
2024-01-24T02:10:55.407Z,-0.19
2024-01-24T02:13:21.815Z,-0.19
2024-01-24T02:15:49.136Z,-0.19
2024-01-24T02:18:15.649Z,-0.20
2024-01-24T02:20:42.306Z,-0.20
2024-01-24T02:23:10.127Z,-0.17
2024-01-24T02:25:36.387Z,-0.15
2024-01-24T02:28:03.016Z,-0.12
2024-01-24T02:30:29.486Z,-0.08
2024-01-24T02:32:57.004Z,-0.05
2024-01-24T02:35:25.144Z,-0.05
2024-01-24T02:37:51.534Z,-0.05
2024-01-24T02:40:17.948Z,-0.06
2024-01-24T02:42:44.276Z,-0.06
2024-01-24T02:45:10.722Z,-0.03
2024-01-24T02:47:37.676Z,0.03
2024-01-24T02:50:04.932Z,0.05
2024-01-24T02:52:31.552Z,0.05
2024-01-24T02:54:57.882Z,0.03
2024-01-24T02:57:24.166Z,0.01
2024-01-24T02:59:50.596Z,0.01
2024-01-24T03:02:17.027Z,0.02
2024-01-24T03:04:43.450Z,0.04
2024-01-24T03:07:10.029Z,0.06
2024-01-24T03:09:36.684Z,0.08
2024-01-24T03:12:03.341Z,0.11
2024-01-24T03:14:30.036Z,0.11
2024-01-24T03:16:56.827Z,0.09
2024-01-24T03:19:23.556Z,0.08
2024-01-24T03:21:50.099Z,0.09
2024-01-24T03:24:16.688Z,0.11
2024-01-24T03:26:43.240Z,0.13
2024-01-24T03:29:09.634Z,0.14
2024-01-24T03:31:35.916Z,0.14
2024-01-24T03:34:02.527Z,0.14
2024-01-24T03:36:29.332Z,0.14
2024-01-24T03:38:56.181Z,0.13
2024-01-24T03:41:22.466Z,0.12
2024-01-24T03:43:48.918Z,0.12
2024-01-24T03:46:19.057Z,0.13
2024-01-24T03:48:45.534Z,0.15
2024-01-24T03:51:12.309Z,0.17
2024-01-24T03:53:38.682Z,0.17
2024-01-24T03:56:06.473Z,0.19
2024-01-24T03:58:32.973Z,0.18
2024-01-24T04:00:59.420Z,0.18
2024-01-24T04:03:26.081Z,0.19
2024-01-24T04:05:52.483Z,0.19
2024-01-24T04:08:18.809Z,0.18
2024-01-24T04:10:45.187Z,0.18
2024-01-24T04:13:11.501Z,0.16
2024-01-24T04:15:39.909Z,0.14
2024-01-24T04:18:07.477Z,0.10
2024-01-24T04:20:33.886Z,0.09
2024-01-24T04:23:00.501Z,0.11
2024-01-24T04:25:26.900Z,0.14
2024-01-24T04:27:53.359Z,0.18
2024-01-24T04:30:19.908Z,0.21
2024-01-24T04:32:46.384Z,0.23
2024-01-24T04:35:12.908Z,0.25
2024-01-24T04:37:39.280Z,0.26
2024-01-24T04:40:07.148Z,0.28
2024-01-24T04:42:33.743Z,0.28
2024-01-24T04:45:00.225Z,0.31
2024-01-24T04:47:26.668Z,0.31
2024-01-24T04:49:53.315Z,0.30
2024-01-24T04:52:19.677Z,0.27
2024-01-24T04:54:46.298Z,0.27
2024-01-24T04:57:12.836Z,0.28
2024-01-24T04:59:46.595Z,0.29
2024-01-24T05:02:20.204Z,0.29
2024-01-24T05:04:47.893Z,0.28
2024-01-24T05:07:14.370Z,0.25
2024-01-24T05:09:41.116Z,0.21
2024-01-24T05:12:07.543Z,0.18
2024-01-24T05:14:34.196Z,0.18
2024-01-24T05:17:03.887Z,0.19
2024-01-24T05:19:30.473Z,0.20
2024-01-24T05:21:57.297Z,0.23
2024-01-24T05:24:23.826Z,0.26
2024-01-24T05:26:50.186Z,0.27
2024-01-24T05:29:16.515Z,0.26
2024-01-24T05:31:43.363Z,0.22
2024-01-24T05:34:09.998Z,0.17
2024-01-24T05:36:36.564Z,0.14
2024-01-24T05:39:07.049Z,0.13
2024-01-24T05:41:34.222Z,0.10
2024-01-24T05:44:00.551Z,0.08
2024-01-24T05:46:26.812Z,0.05
2024-01-24T05:48:53.288Z,0.03
2024-01-24T05:51:19.698Z,0.03
2024-01-24T05:53:46.089Z,0.02
2024-01-24T05:56:12.519Z,-0.01
2024-01-24T05:58:38.993Z,-0.03
2024-01-24T06:01:08.091Z,-0.03
2024-01-24T06:03:35.060Z,-0.01
2024-01-24T06:06:01.917Z,0.00
2024-01-24T06:08:30.036Z,-0.00
2024-01-24T06:10:56.798Z,-0.01
2024-01-24T06:13:23.147Z,0.02
2024-01-24T06:15:50.866Z,0.03
2024-01-24T06:18:17.946Z,0.07
2024-01-24T06:20:45.918Z,0.13
2024-01-24T06:23:12.750Z,0.21
2024-01-24T06:25:39.289Z,0.29
2024-01-24T06:28:05.952Z,0.35
2024-01-24T06:30:32.616Z,0.38
2024-01-24T06:32:59.081Z,0.43
2024-01-24T06:35:25.551Z,0.48
2024-01-24T06:37:52.122Z,0.55
2024-01-24T06:40:21.415Z,0.62
2024-01-24T06:42:47.811Z,0.71
2024-01-24T06:45:14.333Z,0.80
2024-01-24T06:47:40.874Z,0.85
2024-01-24T06:50:08.659Z,0.83
2024-01-24T06:52:35.130Z,0.81
2024-01-24T06:55:02.629Z,0.85
2024-01-24T06:57:29.186Z,0.90
2024-01-24T06:59:55.557Z,0.99
2024-01-24T07:02:21.881Z,1.07
2024-01-24T07:04:48.538Z,1.10
2024-01-24T07:07:15.395Z,1.14
2024-01-24T07:09:41.873Z,1.22
2024-01-24T07:12:08.468Z,1.28
2024-01-24T07:14:35.117Z,1.35
2024-01-24T07:17:05.987Z,1.40
2024-01-24T07:19:32.978Z,1.44
2024-01-24T07:22:01.019Z,1.50
2024-01-24T07:24:28.625Z,1.54
2024-01-24T07:26:55.115Z,1.57
2024-01-24T07:29:21.450Z,1.59
2024-01-24T07:31:47.924Z,1.61
2024-01-24T07:34:15.936Z,1.64
2024-01-24T07:36:42.667Z,1.69
2024-01-24T07:39:09.432Z,1.73
2024-01-24T07:41:35.916Z,1.77
2024-01-24T07:44:02.484Z,1.82
2024-01-24T07:46:29.956Z,1.87
2024-01-24T07:48:56.395Z,1.91
2024-01-24T07:51:23.230Z,1.93
2024-01-24T07:53:49.634Z,1.98
2024-01-24T07:56:24.353Z,2.03
2024-01-24T07:58:52.828Z,2.06
2024-01-24T08:01:19.823Z,2.09
2024-01-24T08:03:49.486Z,2.14
2024-01-24T08:06:19.890Z,2.16
2024-01-24T08:08:46.694Z,2.16
2024-01-24T08:11:13.302Z,2.18
2024-01-24T08:13:39.790Z,2.23
2024-01-24T08:16:08.357Z,2.29
2024-01-24T08:18:34.945Z,2.36
2024-01-24T08:21:01.424Z,2.45
2024-01-24T08:23:34.737Z,2.53
2024-01-24T08:26:09.792Z,2.61
2024-01-24T08:28:37.243Z,2.67
2024-01-24T08:31:03.967Z,2.72
2024-01-24T08:33:32.957Z,2.72
2024-01-24T08:35:59.829Z,2.72
2024-01-24T08:38:26.352Z,2.76
2024-01-24T08:40:52.941Z,2.79
2024-01-24T08:43:19.572Z,2.83
2024-01-24T08:45:48.822Z,2.90
2024-01-24T08:48:18.369Z,2.93
2024-01-24T08:50:44.937Z,2.90
2024-01-24T08:53:11.486Z,2.87
2024-01-24T08:55:38.656Z,2.88
2024-01-24T08:58:05.398Z,2.93
2024-01-24T09:00:31.909Z,3.01
2024-01-24T09:02:59.117Z,3.06
2024-01-24T09:05:26.289Z,3.09
2024-01-24T09:07:53.953Z,3.10
2024-01-24T09:10:20.458Z,3.14
2024-01-24T09:12:47.306Z,3.16
2024-01-24T09:15:16.935Z,3.24
2024-01-24T09:17:44.616Z,3.29
2024-01-24T09:20:11.564Z,3.24
2024-01-24T09:22:38.622Z,3.11
2024-01-24T09:25:08.016Z,3.02
2024-01-24T09:27:38.693Z,3.02
2024-01-24T09:30:06.229Z,3.10
2024-01-24T09:32:33.861Z,3.22
2024-01-24T09:35:01.276Z,3.33
2024-01-24T09:37:27.997Z,3.45
2024-01-24T09:39:55.744Z,3.61
2024-01-24T09:42:25.527Z,3.72
2024-01-24T09:44:51.990Z,3.82
2024-01-24T09:47:20.754Z,3.93
2024-01-24T09:49:47.349Z,4.08
2024-01-24T09:52:13.935Z,4.22
2024-01-24T09:54:40.592Z,4.36
2024-01-24T09:57:07.378Z,4.47
2024-01-24T09:59:33.890Z,4.48
2024-01-24T10:02:00.437Z,4.53
2024-01-24T10:04:27.115Z,4.57
2024-01-24T10:06:54.155Z,4.54
2024-01-24T10:09:21.345Z,4.58
2024-01-24T10:11:48.315Z,4.64
2024-01-24T10:14:15.280Z,4.71
2024-01-24T10:16:43.500Z,4.72
2024-01-24T10:19:10.667Z,4.67
2024-01-24T10:21:37.371Z,4.64
2024-01-24T10:24:04.675Z,4.61
2024-01-24T10:26:31.390Z,4.60
2024-01-24T10:28:57.956Z,4.64
2024-01-24T10:31:24.977Z,4.68
2024-01-24T10:33:55.246Z,4.73
2024-01-24T10:36:27.567Z,4.76
2024-01-24T10:39:04.085Z,4.78
2024-01-24T10:41:31.967Z,4.74
2024-01-24T10:44:03.242Z,4.65
2024-01-24T10:46:33.704Z,4.60
2024-01-24T10:49:00.511Z,4.59
2024-01-24T10:51:30.592Z,4.52
2024-01-24T10:53:57.330Z,4.46
2024-01-24T10:56:26.160Z,4.39
2024-01-24T10:58:53.127Z,4.33
2024-01-24T11:01:20.141Z,4.29
2024-01-24T11:03:47.938Z,4.28
2024-01-24T11:06:15.907Z,4.25
2024-01-24T11:08:57.621Z,4.23
2024-01-24T11:11:24.120Z,4.23
2024-01-24T11:13:53.850Z,4.21
2024-01-24T11:16:27.007Z,4.17
2024-01-24T11:18:57.256Z,4.13
2024-01-24T11:21:24.107Z,4.06
2024-01-24T11:23:50.744Z,3.96
2024-01-24T11:26:17.336Z,3.90
2024-01-24T11:28:44.840Z,3.85
2024-01-24T11:31:12.024Z,3.80
2024-01-24T11:34:12.630Z,3.74
2024-01-24T11:36:42.294Z,3.72
2024-01-24T11:39:31.162Z,3.72
2024-01-24T11:42:32.678Z,3.75
2024-01-24T11:45:17.629Z,3.77
2024-01-24T11:47:45.628Z,3.78
2024-01-24T11:50:12.506Z,3.77
2024-01-24T11:52:40.011Z,3.78
2024-01-24T11:55:07.135Z,3.75
2024-01-24T11:57:33.931Z,3.73
2024-01-24T12:00:00.566Z,3.70
2024-01-24T12:02:27.017Z,3.63
2024-01-24T12:04:53.695Z,3.57
2024-01-24T12:07:20.288Z,3.54
2024-01-24T12:09:47.762Z,3.52
2024-01-24T12:12:14.547Z,3.51
2024-01-24T12:14:41.343Z,3.52
2024-01-24T12:17:08.777Z,3.53
2024-01-24T12:19:36.495Z,3.50
2024-01-24T12:22:05.605Z,3.43
2024-01-24T12:24:32.383Z,3.36
2024-01-24T12:27:01.129Z,3.31
2024-01-24T12:29:28.442Z,3.29
2024-01-24T12:31:54.996Z,3.31
2024-01-24T12:34:22.067Z,3.32
2024-01-24T12:36:48.842Z,3.34
2024-01-24T12:39:15.723Z,3.37
2024-01-24T12:41:42.879Z,3.40
2024-01-24T12:44:09.823Z,3.45
2024-01-24T12:46:40.649Z,3.50
2024-01-24T12:49:07.272Z,3.50
2024-01-24T12:51:37.462Z,3.45
2024-01-24T12:54:05.228Z,3.36
2024-01-24T12:56:31.873Z,3.26
2024-01-24T12:58:58.446Z,3.23
2024-01-24T13:01:25.089Z,3.20
2024-01-24T13:03:51.740Z,3.14
2024-01-24T13:06:18.344Z,3.10
2024-01-24T13:08:44.849Z,3.05
2024-01-24T13:11:11.332Z,2.96
2024-01-24T13:13:38.398Z,2.87
2024-01-24T13:16:07.151Z,2.78
2024-01-24T13:18:34.035Z,2.69
2024-01-24T13:21:00.617Z,2.57
2024-01-24T13:23:27.019Z,2.45
2024-01-24T13:25:53.469Z,2.38
2024-01-24T13:28:21.161Z,2.32
2024-01-24T13:30:50.515Z,2.26
2024-01-24T13:33:17.512Z,2.23
2024-01-24T13:35:43.977Z,2.19
2024-01-24T13:38:10.880Z,2.14
2024-01-24T13:40:38.473Z,2.07
2024-01-24T13:43:06.112Z,2.02
2024-01-24T13:45:33.361Z,1.97
2024-01-24T13:47:59.946Z,1.93
2024-01-24T13:50:26.652Z,1.88
2024-01-24T13:52:53.255Z,1.83
2024-01-24T13:55:19.912Z,1.79
2024-01-24T13:57:46.538Z,1.77
2024-01-24T14:00:14.202Z,1.74
2024-01-24T14:02:42.060Z,1.73
2024-01-24T14:05:09.940Z,1.72
2024-01-24T14:07:39.141Z,1.71
2024-01-24T14:10:06.460Z,1.69
2024-01-24T14:12:33.247Z,1.64
2024-01-24T14:15:03.383Z,1.58
2024-01-24T14:17:37.442Z,1.53
2024-01-24T14:20:04.730Z,1.49
2024-01-24T14:22:31.588Z,1.45
2024-01-24T14:24:58.874Z,1.42
2024-01-24T14:27:26.782Z,1.38
2024-01-24T14:29:54.863Z,1.36
2024-01-24T14:32:21.340Z,1.32
2024-01-24T14:34:47.855Z,1.28
2024-01-24T14:37:14.470Z,1.24
2024-01-24T14:39:41.080Z,1.20
2024-01-24T14:42:08.360Z,1.16
2024-01-24T14:44:35.207Z,1.13
2024-01-24T14:47:01.823Z,1.10
2024-01-24T14:49:28.538Z,1.07
2024-01-24T14:51:55.134Z,1.04
2024-01-24T14:54:21.721Z,1.00
2024-01-24T14:56:48.750Z,0.98
2024-01-24T14:59:17.073Z,0.95
2024-01-24T15:01:43.746Z,0.92
2024-01-24T15:04:10.687Z,0.91
2024-01-24T15:06:37.366Z,0.89
2024-01-24T15:09:07.601Z,0.88
2024-01-24T15:11:35.282Z,0.88
2024-01-24T15:14:01.752Z,0.88
2024-01-24T15:16:30.124Z,0.88
2024-01-24T15:18:57.392Z,0.88
2024-01-24T15:21:23.935Z,0.89
2024-01-24T15:23:51.049Z,0.89
2024-01-24T15:26:18.123Z,0.87
2024-01-24T15:28:44.630Z,0.87
2024-01-24T15:31:11.552Z,0.87
2024-01-24T15:33:38.422Z,0.89
2024-01-24T15:36:05.172Z,0.89
2024-01-24T15:38:31.826Z,0.89
2024-01-24T15:40:58.476Z,0.89
2024-01-24T15:43:26.489Z,0.88
2024-01-24T15:45:53.565Z,0.87
2024-01-24T15:48:20.147Z,0.87
2024-01-24T15:50:47.231Z,0.87
2024-01-24T15:53:13.843Z,0.86
2024-01-24T15:55:40.339Z,0.86
2024-01-24T15:58:06.858Z,0.85
2024-01-24T16:00:33.778Z,0.85
2024-01-24T16:03:00.703Z,0.83
2024-01-24T16:05:33.942Z,0.82
2024-01-24T16:08:03.319Z,0.81
2024-01-24T16:10:30.123Z,0.81
2024-01-24T16:12:56.939Z,0.81
2024-01-24T16:15:25.011Z,0.81
2024-01-24T16:17:51.712Z,0.80
2024-01-24T16:20:18.240Z,0.80
2024-01-24T16:22:51.037Z,0.81
2024-01-24T16:25:23.474Z,0.81
2024-01-24T16:27:50.347Z,0.83
2024-01-24T16:30:17.830Z,0.84
2024-01-24T16:32:45.361Z,0.87
2024-01-24T16:35:14.538Z,0.90
2024-01-24T16:37:41.229Z,0.91
2024-01-24T16:40:08.676Z,0.91
2024-01-24T16:42:35.356Z,0.90
2024-01-24T16:45:02.841Z,0.91
2024-01-24T16:47:29.680Z,0.89
2024-01-24T16:49:56.542Z,0.88
2024-01-24T16:52:23.538Z,0.84
2024-01-24T16:54:50.449Z,0.80
2024-01-24T16:57:17.049Z,0.77
2024-01-24T16:59:43.501Z,0.72
2024-01-24T17:02:11.467Z,0.67
2024-01-24T17:04:38.769Z,0.64
2024-01-24T17:07:05.322Z,0.61
2024-01-24T17:09:32.589Z,0.60
2024-01-24T17:11:59.043Z,0.58
2024-01-24T17:14:25.556Z,0.57
2024-01-24T17:16:53.284Z,0.53
2024-01-24T17:19:21.090Z,0.51
2024-01-24T17:21:47.701Z,0.49
2024-01-24T17:24:14.161Z,0.49
2024-01-24T17:26:40.827Z,0.49
2024-01-24T17:29:07.650Z,0.50
2024-01-24T17:31:35.928Z,0.50
2024-01-24T17:34:02.613Z,0.49
2024-01-24T17:36:29.394Z,0.46
2024-01-24T17:38:56.175Z,0.43
2024-01-24T17:41:23.684Z,0.41
2024-01-24T17:43:50.308Z,0.39
2024-01-24T17:46:16.990Z,0.35
2024-01-24T17:48:45.167Z,0.34
2024-01-24T17:51:14.621Z,0.33
2024-01-24T17:53:41.769Z,0.31
2024-01-24T17:56:08.264Z,0.29
2024-01-24T17:58:35.611Z,0.27
2024-01-24T18:01:04.362Z,0.26
2024-01-24T18:03:31.220Z,0.26
2024-01-24T18:05:57.773Z,0.26
2024-01-24T18:08:25.706Z,0.24
2024-01-24T18:10:52.602Z,0.23
2024-01-24T18:13:19.121Z,0.22
2024-01-24T18:15:46.088Z,0.22
2024-01-24T18:18:12.829Z,0.22
2024-01-24T18:20:39.792Z,0.24
2024-01-24T18:23:06.159Z,0.27
2024-01-24T18:25:32.553Z,0.29
2024-01-24T18:27:59.179Z,0.31
2024-01-24T18:30:25.823Z,0.30
2024-01-24T18:32:52.381Z,0.28
2024-01-24T18:35:18.967Z,0.27
2024-01-24T18:37:45.451Z,0.27
2024-01-24T18:40:12.415Z,0.26
2024-01-24T18:42:42.013Z,0.27
2024-01-24T18:45:13.126Z,0.26
2024-01-24T18:47:40.089Z,0.25
2024-01-24T18:50:08.384Z,0.25
2024-01-24T18:52:35.962Z,0.25
2024-01-24T18:55:02.779Z,0.27
2024-01-24T18:57:29.783Z,0.29
2024-01-24T18:59:56.463Z,0.31
2024-01-24T19:02:23.219Z,0.32
2024-01-24T19:04:49.938Z,0.32
2024-01-24T19:07:17.696Z,0.32
2024-01-24T19:09:45.337Z,0.32
2024-01-24T19:12:11.883Z,0.32
2024-01-24T19:14:40.649Z,0.32
2024-01-24T19:17:09.167Z,0.31
2024-01-24T19:19:36.010Z,0.31
2024-01-24T19:22:03.061Z,0.31
2024-01-24T19:24:29.816Z,0.31
2024-01-24T19:26:56.488Z,0.31
2024-01-24T19:29:23.357Z,0.32
2024-01-24T19:31:51.344Z,0.35
2024-01-24T19:34:19.568Z,0.36
2024-01-24T19:36:46.173Z,0.37
2024-01-24T19:39:14.509Z,0.38
2024-01-24T19:41:41.085Z,0.38
2024-01-24T19:44:07.580Z,0.39
2024-01-24T19:46:34.022Z,0.39
2024-01-24T19:49:00.559Z,0.40
2024-01-24T19:51:28.274Z,0.42
2024-01-24T19:53:55.605Z,0.43
2024-01-24T19:56:22.256Z,0.44
2024-01-24T19:58:48.956Z,0.42
2024-01-24T20:01:15.719Z,0.42
2024-01-24T20:03:42.227Z,0.42
2024-01-24T20:06:08.728Z,0.41
2024-01-24T20:08:35.324Z,0.41
2024-01-24T20:11:01.935Z,0.42
2024-01-24T20:13:28.477Z,0.44
2024-01-24T20:15:58.713Z,0.43
2024-01-24T20:18:25.826Z,0.41
2024-01-24T20:20:52.306Z,0.40
2024-01-24T20:23:18.858Z,0.41
2024-01-24T20:25:45.321Z,0.41
2024-01-24T20:28:11.979Z,0.42
2024-01-24T20:30:38.444Z,0.42
2024-01-24T20:33:05.598Z,0.41
2024-01-24T20:35:32.448Z,0.41
2024-01-24T20:37:59.290Z,0.40
2024-01-24T20:40:25.812Z,0.39
2024-01-24T20:42:52.342Z,0.38
2024-01-24T20:45:18.851Z,0.38
2024-01-24T20:47:45.317Z,0.38
2024-01-24T20:50:12.071Z,0.37
2024-01-24T20:52:38.627Z,0.37
2024-01-24T20:55:05.341Z,0.38
2024-01-24T20:57:33.260Z,0.38
2024-01-24T21:00:01.872Z,0.39
2024-01-24T21:02:28.651Z,0.40
2024-01-24T21:04:55.190Z,0.41
2024-01-24T21:07:21.952Z,0.40
2024-01-24T21:09:48.568Z,0.39
2024-01-24T21:12:15.053Z,0.38
2024-01-24T21:14:41.731Z,0.37
2024-01-24T21:17:11.735Z,0.37
2024-01-24T21:19:38.512Z,0.40
2024-01-24T21:22:05.170Z,0.42
2024-01-24T21:24:31.818Z,0.42
2024-01-24T21:26:58.295Z,0.39
2024-01-24T21:29:24.623Z,0.38
2024-01-24T21:31:50.910Z,0.36
2024-01-24T21:34:17.692Z,0.34
2024-01-24T21:36:48.074Z,0.34
2024-01-24T21:39:16.472Z,0.33
2024-01-24T21:41:42.747Z,0.30
2024-01-24T21:44:09.138Z,0.30
2024-01-24T21:46:35.729Z,0.28
2024-01-24T21:49:02.809Z,0.27
2024-01-24T21:51:29.333Z,0.27
2024-01-24T21:53:55.719Z,0.27
2024-01-24T21:56:22.085Z,0.28
2024-01-24T21:58:48.854Z,0.27
2024-01-24T22:01:16.014Z,0.25
2024-01-24T22:03:42.498Z,0.23
2024-01-24T22:06:08.965Z,0.22
2024-01-24T22:08:35.481Z,0.22
2024-01-24T22:11:01.743Z,0.22
2024-01-24T22:13:28.098Z,0.23
2024-01-24T22:15:57.876Z,0.23
2024-01-24T22:18:30.082Z,0.24
2024-01-24T22:21:04.196Z,0.25
2024-01-24T22:23:30.605Z,0.26
2024-01-24T22:25:58.597Z,0.27
2024-01-24T22:28:25.105Z,0.29
2024-01-24T22:30:52.918Z,0.31
2024-01-24T22:33:19.285Z,0.35
2024-01-24T22:35:45.878Z,0.37
2024-01-24T22:38:12.342Z,0.38
2024-01-24T22:40:39.143Z,0.39
2024-01-24T22:43:05.650Z,0.39
2024-01-24T22:45:32.164Z,0.38
2024-01-24T22:48:00.917Z,0.38
2024-01-24T22:50:27.827Z,0.40
2024-01-24T22:52:54.324Z,0.42
2024-01-24T22:55:21.118Z,0.42
2024-01-24T22:57:48.466Z,0.45
2024-01-24T23:00:19.333Z,0.46
2024-01-24T23:02:46.640Z,0.46
2024-01-24T23:05:13.304Z,0.47
2024-01-24T23:07:42.522Z,0.49
2024-01-24T23:10:09.603Z,0.51
2024-01-24T23:12:36.509Z,0.54
2024-01-24T23:15:05.739Z,0.57
2024-01-24T23:17:32.428Z,0.59
2024-01-24T23:19:59.432Z,0.60
2024-01-24T23:22:26.347Z,0.61
2024-01-24T23:24:52.835Z,0.61
2024-01-24T23:27:19.202Z,0.61
2024-01-24T23:29:45.605Z,0.63
2024-01-24T23:32:12.011Z,0.65
2024-01-24T23:34:38.589Z,0.69
2024-01-24T23:37:05.237Z,0.71
2024-01-24T23:39:32.098Z,0.73
2024-01-24T23:41:58.652Z,0.74
2024-01-24T23:44:25.061Z,0.73
2024-01-24T23:46:51.507Z,0.74
2024-01-24T23:49:18.079Z,0.74
2024-01-24T23:51:44.805Z,0.76
2024-01-24T23:54:12.583Z,0.77
2024-01-24T23:56:38.973Z,0.80
2024-01-24T23:59:05.358Z,0.81
